sensor_id;sensor_type;location;lat;lon;timestamp;pressure;altitude;pressure_sealevel;temperature;humidity
74659;BME280;63186;51.204;6.536;2023-05-13T00:01:01;101491.59;;;10.61;99.99
74659;BME280;63186;51.204;6.536;2023-05-13T00:03:26;101489.72;;;10.56;100.00
74659;BME280;63186;51.204;6.536;2023-05-13T00:05:52;101492.22;;;10.53;100.00
74659;BME280;63186;51.204;6.536;2023-05-13T00:08:18;101484.56;;;10.50;100.00
74659;BME280;63186;51.204;6.536;2023-05-13T00:10:44;101481.81;;;10.50;100.00
74659;BME280;63186;51.204;6.536;2023-05-13T00:13:09;101479.06;;;10.50;100.00
74659;BME280;63186;51.204;6.536;2023-05-13T00:15:35;101485.13;;;10.47;100.00
74659;BME280;63186;51.204;6.536;2023-05-13T00:18:00;101473.84;;;10.48;100.00
74659;BME280;63186;51.204;6.536;2023-05-13T00:20:26;101475.13;;;10.56;100.00
74659;BME280;63186;51.204;6.536;2023-05-13T00:22:51;101476.69;;;10.62;100.00
74659;BME280;63186;51.204;6.536;2023-05-13T00:25:16;101476.94;;;10.66;100.00
74659;BME280;63186;51.204;6.536;2023-05-13T00:27:42;101481.69;;;10.60;100.00
74659;BME280;63186;51.204;6.536;2023-05-13T00:30:07;101482.00;;;10.58;100.00
74659;BME280;63186;51.204;6.536;2023-05-13T00:32:33;101476.53;;;10.53;100.00
74659;BME280;63186;51.204;6.536;2023-05-13T00:34:58;101480.28;;;10.63;100.00
74659;BME280;63186;51.204;6.536;2023-05-13T00:37:24;101473.78;;;10.77;100.00
74659;BME280;63186;51.204;6.536;2023-05-13T00:39:49;101481.53;;;10.94;100.00
74659;BME280;63186;51.204;6.536;2023-05-13T00:42:14;101476.47;;;11.01;100.00
74659;BME280;63186;51.204;6.536;2023-05-13T00:44:40;101480.78;;;11.07;99.52
74659;BME280;63186;51.204;6.536;2023-05-13T00:47:05;101478.03;;;11.07;99.33
74659;BME280;63186;51.204;6.536;2023-05-13T00:49:32;101485.44;;;11.12;98.73
74659;BME280;63186;51.204;6.536;2023-05-13T00:51:57;101477.97;;;11.12;98.76
74659;BME280;63186;51.204;6.536;2023-05-13T00:54:23;101480.72;;;11.12;98.85
74659;BME280;63186;51.204;6.536;2023-05-13T00:56:48;101478.78;;;11.13;98.95
74659;BME280;63186;51.204;6.536;2023-05-13T00:59:18;101481.03;;;11.11;99.03
74659;BME280;63186;51.204;6.536;2023-05-13T01:01:47;101473.59;;;11.11;98.72
74659;BME280;63186;51.204;6.536;2023-05-13T01:07:32;101480.16;;;11.16;99.55
74659;BME280;63186;51.204;6.536;2023-05-13T01:10:08;101477.41;;;11.16;99.14
74659;BME280;63186;51.204;6.536;2023-05-13T01:12:39;101479.84;;;11.17;98.77
74659;BME280;63186;51.204;6.536;2023-05-13T01:15:07;101480.66;;;11.18;98.78
74659;BME280;63186;51.204;6.536;2023-05-13T01:20:07;101474.53;;;11.02;98.65
74659;BME280;63186;51.204;6.536;2023-05-13T01:22:32;101474.38;;;10.93;98.92
74659;BME280;63186;51.204;6.536;2023-05-13T01:24:58;101475.25;;;10.88;99.67
74659;BME280;63186;51.204;6.536;2023-05-13T01:27:23;101474.22;;;10.84;100.00
74659;BME280;63186;51.204;6.536;2023-05-13T01:29:49;101467.34;;;10.82;99.76
74659;BME280;63186;51.204;6.536;2023-05-13T01:32:14;101472.66;;;10.78;99.87
74659;BME280;63186;51.204;6.536;2023-05-13T01:34:40;101473.16;;;10.80;99.99
74659;BME280;63186;51.204;6.536;2023-05-13T01:37:07;101473.47;;;10.79;99.88
74659;BME280;63186;51.204;6.536;2023-05-13T01:39:35;101478.47;;;10.77;99.71
74659;BME280;63186;51.204;6.536;2023-05-13T01:42:01;101475.78;;;10.72;99.20
74659;BME280;63186;51.204;6.536;2023-05-13T01:44:27;101488.53;;;10.63;99.63
74659;BME280;63186;51.204;6.536;2023-05-13T01:46:52;101487.84;;;10.52;100.00
74659;BME280;63186;51.204;6.536;2023-05-13T01:49:18;101480.47;;;10.47;100.00
74659;BME280;63186;51.204;6.536;2023-05-13T01:51:43;101480.69;;;10.51;100.00
74659;BME280;63186;51.204;6.536;2023-05-13T01:54:09;101492.75;;;10.55;100.00
74659;BME280;63186;51.204;6.536;2023-05-13T01:56:34;101485.09;;;10.52;100.00
74659;BME280;63186;51.204;6.536;2023-05-13T01:59:00;101488.16;;;10.50;100.00
74659;BME280;63186;51.204;6.536;2023-05-13T02:01:25;101483.81;;;10.44;100.00
74659;BME280;63186;51.204;6.536;2023-05-13T02:03:51;101484.69;;;10.40;100.00
74659;BME280;63186;51.204;6.536;2023-05-13T02:06:16;101478.44;;;10.29;100.00
74659;BME280;63186;51.204;6.536;2023-05-13T02:08:41;101482.94;;;10.20;100.00
74659;BME280;63186;51.204;6.536;2023-05-13T02:11:07;101482.97;;;10.15;100.00
74659;BME280;63186;51.204;6.536;2023-05-13T02:13:32;101480.81;;;10.12;100.00
74659;BME280;63186;51.204;6.536;2023-05-13T02:15:57;101490.22;;;10.05;100.00
74659;BME280;63186;51.204;6.536;2023-05-13T02:18:23;101487.09;;;9.83;100.00
74659;BME280;63186;51.204;6.536;2023-05-13T02:20:49;101488.59;;;9.70;100.00
74659;BME280;63186;51.204;6.536;2023-05-13T02:23:15;101480.34;;;9.70;100.00
74659;BME280;63186;51.204;6.536;2023-05-13T02:25:41;101483.91;;;9.71;100.00
74659;BME280;63186;51.204;6.536;2023-05-13T02:28:06;101488.31;;;9.72;100.00
74659;BME280;63186;51.204;6.536;2023-05-13T02:30:32;101487.91;;;9.55;100.00
74659;BME280;63186;51.204;6.536;2023-05-13T02:32:59;101489.38;;;9.37;100.00
74659;BME280;63186;51.204;6.536;2023-05-13T02:35:24;101486.63;;;9.37;100.00
74659;BME280;63186;51.204;6.536;2023-05-13T02:37:53;101484.72;;;9.37;100.00
74659;BME280;63186;51.204;6.536;2023-05-13T02:40:19;101479.22;;;9.37;100.00
74659;BME280;63186;51.204;6.536;2023-05-13T02:42:44;101477.88;;;9.35;100.00
74659;BME280;63186;51.204;6.536;2023-05-13T02:45:09;101480.66;;;9.30;100.00
74659;BME280;63186;51.204;6.536;2023-05-13T02:47:35;101479.31;;;9.27;100.00
74659;BME280;63186;51.204;6.536;2023-05-13T02:50:00;101480.94;;;9.28;100.00
74659;BME280;63186;51.204;6.536;2023-05-13T02:52:26;101482.56;;;9.29;100.00
74659;BME280;63186;51.204;6.536;2023-05-13T02:54:51;101479.31;;;9.27;100.00
74659;BME280;63186;51.204;6.536;2023-05-13T02:57:16;101485.38;;;9.19;100.00
74659;BME280;63186;51.204;6.536;2023-05-13T02:59:41;101485.75;;;9.07;100.00
74659;BME280;63186;51.204;6.536;2023-05-13T03:02:07;101484.34;;;9.05;100.00
74659;BME280;63186;51.204;6.536;2023-05-13T03:04:32;101479.44;;;9.02;100.00
74659;BME280;63186;51.204;6.536;2023-05-13T03:06:57;101479.44;;;9.02;100.00
74659;BME280;63186;51.204;6.536;2023-05-13T03:09:23;101477.75;;;9.06;100.00
74659;BME280;63186;51.204;6.536;2023-05-13T03:11:48;101478.56;;;9.06;100.00
74659;BME280;63186;51.204;6.536;2023-05-13T03:14:13;101477.22;;;9.04;100.00
74659;BME280;63186;51.204;6.536;2023-05-13T03:16:39;101477.53;;;9.02;100.00
74659;BME280;63186;51.204;6.536;2023-05-13T03:19:04;101479.72;;;9.00;100.00
74659;BME280;63186;51.204;6.536;2023-05-13T03:21:29;101478.88;;;9.00;100.00
74659;BME280;63186;51.204;6.536;2023-05-13T03:23:55;101471.50;;;9.00;100.00
74659;BME280;63186;51.204;6.536;2023-05-13T03:26:20;101479.38;;;9.12;100.00
74659;BME280;63186;51.204;6.536;2023-05-13T03:28:45;101479.09;;;9.13;100.00
74659;BME280;63186;51.204;6.536;2023-05-13T03:31:11;101471.41;;;9.15;100.00
74659;BME280;63186;51.204;6.536;2023-05-13T03:33:36;101476.63;;;9.12;100.00
74659;BME280;63186;51.204;6.536;2023-05-13T03:36:02;101472.81;;;9.08;100.00
74659;BME280;63186;51.204;6.536;2023-05-13T03:38:28;101476.91;;;9.10;100.00
74659;BME280;63186;51.204;6.536;2023-05-13T03:40:53;101469.19;;;9.12;100.00
74659;BME280;63186;51.204;6.536;2023-05-13T03:43:18;101472.22;;;9.16;100.00
74659;BME280;63186;51.204;6.536;2023-05-13T03:45:44;101476.63;;;9.12;100.00
74659;BME280;63186;51.204;6.536;2023-05-13T03:48:12;101481.25;;;9.21;100.00
74659;BME280;63186;51.204;6.536;2023-05-13T03:50:37;101473.22;;;9.30;100.00
74659;BME280;63186;51.204;6.536;2023-05-13T03:53:03;101474.50;;;9.43;100.00
74659;BME280;63186;51.204;6.536;2023-05-13T03:55:28;101475.25;;;9.54;100.00
74659;BME280;63186;51.204;6.536;2023-05-13T03:57:53;101486.16;;;9.64;100.00
74659;BME280;63186;51.204;6.536;2023-05-13T04:00:19;101483.34;;;9.74;100.00
74659;BME280;63186;51.204;6.536;2023-05-13T04:02:44;101487.09;;;9.83;100.00
74659;BME280;63186;51.204;6.536;2023-05-13T04:05:10;101492.00;;;9.91;100.00
74659;BME280;63186;51.204;6.536;2023-05-13T04:07:37;101491.13;;;9.96;99.74
74659;BME280;63186;51.204;6.536;2023-05-13T04:10:02;101491.91;;;10.01;100.00
74659;BME280;63186;51.204;6.536;2023-05-13T04:12:28;101492.09;;;10.10;99.60
74659;BME280;63186;51.204;6.536;2023-05-13T04:14:54;101508.22;;;10.22;99.08
74659;BME280;63186;51.204;6.536;2023-05-13T04:17:20;101502.34;;;10.33;98.62
74659;BME280;63186;51.204;6.536;2023-05-13T04:19:45;101504.72;;;10.45;97.75
74659;BME280;63186;51.204;6.536;2023-05-13T04:22:10;101501.09;;;10.50;97.71
74659;BME280;63186;51.204;6.536;2023-05-13T04:24:35;101507.88;;;10.57;97.29
74659;BME280;63186;51.204;6.536;2023-05-13T04:27:01;101503.59;;;10.70;97.19
74659;BME280;63186;51.204;6.536;2023-05-13T04:29:27;101515.81;;;11.07;95.99
74659;BME280;63186;51.204;6.536;2023-05-13T04:31:52;101513.50;;;11.14;94.50
74659;BME280;63186;51.204;6.536;2023-05-13T04:34:17;101505.97;;;11.01;94.15
74659;BME280;63186;51.204;6.536;2023-05-13T04:36:43;101509.69;;;10.91;94.67
74659;BME280;63186;51.204;6.536;2023-05-13T04:39:10;101509.28;;;10.79;95.69
74659;BME280;63186;51.204;6.536;2023-05-13T04:41:35;101509.88;;;10.76;95.63
74659;BME280;63186;51.204;6.536;2023-05-13T04:44:01;101511.50;;;10.77;95.79
74659;BME280;63186;51.204;6.536;2023-05-13T04:46:26;101508.47;;;10.78;95.72
74659;BME280;63186;51.204;6.536;2023-05-13T04:48:52;101506.53;;;10.79;95.71
74659;BME280;63186;51.204;6.536;2023-05-13T04:51:17;101510.34;;;10.83;95.64
74659;BME280;63186;51.204;6.536;2023-05-13T04:53:42;101508.91;;;10.85;95.31
74659;BME280;63186;51.204;6.536;2023-05-13T04:56:07;101524.94;;;10.83;95.68
74659;BME280;63186;51.204;6.536;2023-05-13T04:58:33;101525.75;;;10.84;95.73
74659;BME280;63186;51.204;6.536;2023-05-13T05:00:58;101522.19;;;10.83;96.08
74659;BME280;63186;51.204;6.536;2023-05-13T05:03:23;101529.03;;;10.86;95.74
74659;BME280;63186;51.204;6.536;2023-05-13T05:05:48;101529.53;;;10.88;95.80
74659;BME280;63186;51.204;6.536;2023-05-13T05:08:15;101530.59;;;10.92;95.57
74659;BME280;63186;51.204;6.536;2023-05-13T05:10:40;101527.19;;;11.00;95.44
74659;BME280;63186;51.204;6.536;2023-05-13T05:13:05;101534.72;;;11.13;94.94
74659;BME280;63186;51.204;6.536;2023-05-13T05:15:31;101530.13;;;11.28;94.25
74659;BME280;63186;51.204;6.536;2023-05-13T05:17:56;101521.72;;;11.38;93.67
74659;BME280;63186;51.204;6.536;2023-05-13T05:20:22;101539.59;;;11.59;93.35
74659;BME280;63186;51.204;6.536;2023-05-13T05:22:48;101535.31;;;12.05;92.70
74659;BME280;63186;51.204;6.536;2023-05-13T05:25:14;101530.63;;;13.07;88.65
74659;BME280;63186;51.204;6.536;2023-05-13T05:27:40;101538.03;;;14.28;83.27
74659;BME280;63186;51.204;6.536;2023-05-13T05:30:08;101537.63;;;14.75;78.38
74659;BME280;63186;51.204;6.536;2023-05-13T05:32:34;101534.31;;;14.64;78.15
74659;BME280;63186;51.204;6.536;2023-05-13T05:35:00;101536.03;;;14.51;78.99
74659;BME280;63186;51.204;6.536;2023-05-13T05:37:28;101538.47;;;14.53;77.94
74659;BME280;63186;51.204;6.536;2023-05-13T05:39:54;101541.31;;;14.39;78.18
74659;BME280;63186;51.204;6.536;2023-05-13T05:42:19;101541.84;;;14.41;80.74
74659;BME280;63186;51.204;6.536;2023-05-13T05:44:45;101541.00;;;14.72;79.70
74659;BME280;63186;51.204;6.536;2023-05-13T05:47:11;101543.56;;;15.65;76.81
74659;BME280;63186;51.204;6.536;2023-05-13T05:49:37;101544.22;;;16.52;74.40
74659;BME280;63186;51.204;6.536;2023-05-13T05:52:02;101547.81;;;16.99;72.22
74659;BME280;63186;51.204;6.536;2023-05-13T05:54:27;101546.28;;;17.11;69.55
74659;BME280;63186;51.204;6.536;2023-05-13T05:56:52;101545.03;;;17.71;68.82
74659;BME280;63186;51.204;6.536;2023-05-13T05:59:18;101549.75;;;18.33;68.27
74659;BME280;63186;51.204;6.536;2023-05-13T06:01:43;101551.97;;;18.52;66.77
74659;BME280;63186;51.204;6.536;2023-05-13T06:04:08;101548.56;;;18.34;67.31
74659;BME280;63186;51.204;6.536;2023-05-13T06:06:34;101561.66;;;17.88;68.50
74659;BME280;63186;51.204;6.536;2023-05-13T06:08:59;101566.47;;;17.79;69.74
74659;BME280;63186;51.204;6.536;2023-05-13T06:11:25;101556.56;;;18.68;66.22
74659;BME280;63186;51.204;6.536;2023-05-13T06:13:52;101552.84;;;19.25;64.29
74659;BME280;63186;51.204;6.536;2023-05-13T06:16:18;101553.66;;;19.91;61.79
74659;BME280;63186;51.204;6.536;2023-05-13T06:18:43;101550.78;;;20.31;60.87
74659;BME280;63186;51.204;6.536;2023-05-13T06:21:08;101555.38;;;20.83;60.03
74659;BME280;63186;51.204;6.536;2023-05-13T06:23:33;101553.50;;;21.22;57.77
74659;BME280;63186;51.204;6.536;2023-05-13T06:25:59;101549.38;;;21.16;58.03
74659;BME280;63186;51.204;6.536;2023-05-13T06:28:24;101552.91;;;21.13;58.51
74659;BME280;63186;51.204;6.536;2023-05-13T06:30:50;101564.84;;;21.61;57.30
74659;BME280;63186;51.204;6.536;2023-05-13T06:33:15;101569.84;;;21.71;56.79
74659;BME280;63186;51.204;6.536;2023-05-13T06:35:40;101564.34;;;21.94;56.44
74659;BME280;63186;51.204;6.536;2023-05-13T06:38:07;101562.63;;;21.89;56.32
74659;BME280;63186;51.204;6.536;2023-05-13T06:40:32;101568.91;;;22.02;55.22
74659;BME280;63186;51.204;6.536;2023-05-13T06:42:57;101578.63;;;21.70;55.14
74659;BME280;63186;51.204;6.536;2023-05-13T06:45:23;101588.63;;;21.51;51.81
74659;BME280;63186;51.204;6.536;2023-05-13T06:47:50;101587.22;;;21.42;55.10
74659;BME280;63186;51.204;6.536;2023-05-13T06:50:16;101581.50;;;21.38;56.01
74659;BME280;63186;51.204;6.536;2023-05-13T06:52:41;101583.88;;;21.90;55.08
74659;BME280;63186;51.204;6.536;2023-05-13T06:55:07;101591.03;;;22.07;54.18
74659;BME280;63186;51.204;6.536;2023-05-13T06:57:33;101595.28;;;21.62;54.80
74659;BME280;63186;51.204;6.536;2023-05-13T06:59:58;101586.31;;;21.37;52.86
74659;BME280;63186;51.204;6.536;2023-05-13T07:02:23;101586.47;;;21.45;56.01
74659;BME280;63186;51.204;6.536;2023-05-13T07:04:48;101590.81;;;21.42;55.68
74659;BME280;63186;51.204;6.536;2023-05-13T07:07:14;101592.75;;;20.75;56.82
74659;BME280;63186;51.204;6.536;2023-05-13T07:09:39;101591.97;;;20.18;59.12
74659;BME280;63186;51.204;6.536;2023-05-13T07:12:05;101583.06;;;19.60;60.98
74659;BME280;63186;51.204;6.536;2023-05-13T07:14:30;101582.59;;;19.70;60.32
74659;BME280;63186;51.204;6.536;2023-05-13T07:16:55;101582.53;;;20.23;57.59
74659;BME280;63186;51.204;6.536;2023-05-13T07:19:22;101590.06;;;21.80;54.81
74659;BME280;63186;51.204;6.536;2023-05-13T07:21:48;101590.66;;;22.47;51.45
74659;BME280;63186;51.204;6.536;2023-05-13T07:24:13;101605.09;;;22.27;51.33
74659;BME280;63186;51.204;6.536;2023-05-13T07:26:38;101596.91;;;20.09;56.61
74659;BME280;63186;51.204;6.536;2023-05-13T07:29:04;101589.81;;;18.40;59.10
74659;BME280;63186;51.204;6.536;2023-05-13T07:31:29;101584.59;;;18.39;62.03
74659;BME280;63186;51.204;6.536;2023-05-13T07:33:54;101588.22;;;20.54;56.52
74659;BME280;63186;51.204;6.536;2023-05-13T07:36:20;101583.81;;;20.69;55.50
74659;BME280;63186;51.204;6.536;2023-05-13T07:38:46;101588.59;;;20.69;55.67
74659;BME280;63186;51.204;6.536;2023-05-13T07:41:11;101594.72;;;21.73;53.57
74659;BME280;63186;51.204;6.536;2023-05-13T07:43:37;101591.00;;;22.65;50.80
74659;BME280;63186;51.204;6.536;2023-05-13T07:46:04;101582.41;;;23.53;48.24
74659;BME280;63186;51.204;6.536;2023-05-13T07:48:29;101585.50;;;23.71;46.59
74659;BME280;63186;51.204;6.536;2023-05-13T07:50:55;101587.06;;;23.69;47.85
74659;BME280;63186;51.204;6.536;2023-05-13T07:53:21;101590.78;;;23.50;47.28
74659;BME280;63186;51.204;6.536;2023-05-13T07:55:47;101587.09;;;24.02;47.93
74659;BME280;63186;51.204;6.536;2023-05-13T07:58:12;101588.88;;;24.51;47.29
74659;BME280;63186;51.204;6.536;2023-05-13T08:00:38;101587.00;;;22.66;49.70
74659;BME280;63186;51.204;6.536;2023-05-13T08:03:03;101589.31;;;20.97;54.59
74659;BME280;63186;51.204;6.536;2023-05-13T08:05:28;101590.16;;;19.70;58.00
74659;BME280;63186;51.204;6.536;2023-05-13T08:07:54;101591.00;;;20.26;56.64
74659;BME280;63186;51.204;6.536;2023-05-13T08:10:19;101592.34;;;20.17;57.43
74659;BME280;63186;51.204;6.536;2023-05-13T08:12:45;101592.28;;;19.24;59.95
74659;BME280;63186;51.204;6.536;2023-05-13T08:15:15;101578.88;;;18.68;61.23
74659;BME280;63186;51.204;6.536;2023-05-13T08:17:41;101578.81;;;18.56;61.92
74659;BME280;63186;51.204;6.536;2023-05-13T08:20:06;101583.47;;;18.97;61.04
74659;BME280;63186;51.204;6.536;2023-05-13T08:22:32;101589.16;;;21.57;54.67
74659;BME280;63186;51.204;6.536;2023-05-13T08:24:57;101583.22;;;23.27;50.05
74659;BME280;63186;51.204;6.536;2023-05-13T08:27:25;101588.16;;;24.24;46.88
74659;BME280;63186;51.204;6.536;2023-05-13T08:29:50;101580.63;;;24.69;46.59
74659;BME280;63186;51.204;6.536;2023-05-13T08:32:15;101586.88;;;24.96;46.12
74659;BME280;63186;51.204;6.536;2023-05-13T08:34:41;101588.66;;;25.11;45.54
74659;BME280;63186;51.204;6.536;2023-05-13T08:37:06;101594.44;;;25.33;44.87
74659;BME280;63186;51.204;6.536;2023-05-13T08:39:31;101591.03;;;25.06;45.70
74659;BME280;63186;51.204;6.536;2023-05-13T08:41:57;101595.66;;;25.32;45.21
74659;BME280;63186;51.204;6.536;2023-05-13T08:44:24;101595.47;;;25.65;43.37
74659;BME280;63186;51.204;6.536;2023-05-13T08:47:01;101594.81;;;25.93;41.44
74659;BME280;63186;51.204;6.536;2023-05-13T08:49:28;101582.00;;;26.10;41.82
74659;BME280;63186;51.204;6.536;2023-05-13T08:51:53;101586.97;;;25.62;43.01
74659;BME280;63186;51.204;6.536;2023-05-13T08:54:19;101586.56;;;25.60;44.57
74659;BME280;63186;51.204;6.536;2023-05-13T08:56:44;101583.63;;;26.11;43.86
74659;BME280;63186;51.204;6.536;2023-05-13T08:59:09;101580.16;;;26.68;42.39
74659;BME280;63186;51.204;6.536;2023-05-13T09:01:35;101583.59;;;26.04;43.32
74659;BME280;63186;51.204;6.536;2023-05-13T09:04:05;101586.69;;;24.75;43.99
74659;BME280;63186;51.204;6.536;2023-05-13T09:06:32;101575.03;;;22.92;46.63
74659;BME280;63186;51.204;6.536;2023-05-13T09:08:57;101590.59;;;21.86;52.27
74659;BME280;63186;51.204;6.536;2023-05-13T09:11:23;101576.28;;;21.72;52.76
74659;BME280;63186;51.204;6.536;2023-05-13T09:13:56;101581.06;;;21.90;47.33
74659;BME280;63186;51.204;6.536;2023-05-13T09:16:22;101586.00;;;21.97;50.38
74659;BME280;63186;51.204;6.536;2023-05-13T09:18:48;101576.47;;;22.83;47.32
74659;BME280;63186;51.204;6.536;2023-05-13T09:21:30;101578.97;;;23.64;44.29
74659;BME280;63186;51.204;6.536;2023-05-13T09:24:21;101579.88;;;24.01;42.21
74659;BME280;63186;51.204;6.536;2023-05-13T09:26:49;101580.38;;;24.10;43.89
74659;BME280;63186;51.204;6.536;2023-05-13T09:29:21;101573.50;;;24.42;38.95
74659;BME280;63186;51.204;6.536;2023-05-13T09:31:54;101573.75;;;24.67;42.03
74659;BME280;63186;51.204;6.536;2023-05-13T09:34:30;101560.16;;;24.76;42.30
74659;BME280;63186;51.204;6.536;2023-05-13T09:37:04;101558.88;;;24.29;42.58
74659;BME280;63186;51.204;6.536;2023-05-13T09:39:32;101569.03;;;24.37;44.89
74659;BME280;63186;51.204;6.536;2023-05-13T09:41:59;101561.16;;;24.53;44.71
74659;BME280;63186;51.204;6.536;2023-05-13T09:44:25;101562.03;;;23.90;45.95
74659;BME280;63186;51.204;6.536;2023-05-13T09:46:50;101565.66;;;23.08;47.08
74659;BME280;63186;51.204;6.536;2023-05-13T09:49:17;101570.00;;;22.36;46.04
74659;BME280;63186;51.204;6.536;2023-05-13T09:51:45;101555.09;;;22.32;44.50
74659;BME280;63186;51.204;6.536;2023-05-13T09:54:10;101557.56;;;22.14;44.16
74659;BME280;63186;51.204;6.536;2023-05-13T09:56:36;101560.44;;;22.18;44.81
74659;BME280;63186;51.204;6.536;2023-05-13T09:59:02;101556.44;;;22.38;42.42
74659;BME280;63186;51.204;6.536;2023-05-13T10:01:28;101550.81;;;22.61;44.95
74659;BME280;63186;51.204;6.536;2023-05-13T10:03:55;101552.19;;;22.94;44.39
74659;BME280;63186;51.204;6.536;2023-05-13T10:06:22;101549.66;;;23.38;41.82
74659;BME280;63186;51.204;6.536;2023-05-13T10:08:49;101552.53;;;23.42;42.77
74659;BME280;63186;51.204;6.536;2023-05-13T10:11:16;101544.22;;;23.22;42.30
74659;BME280;63186;51.204;6.536;2023-05-13T10:13:46;101536.16;;;22.94;39.82
74659;BME280;63186;51.204;6.536;2023-05-13T10:16:14;101538.97;;;22.71;43.72
74659;BME280;63186;51.204;6.536;2023-05-13T10:18:40;101542.97;;;22.70;44.90
74659;BME280;63186;51.204;6.536;2023-05-13T10:21:06;101532.25;;;22.76;42.17
74659;BME280;63186;51.204;6.536;2023-05-13T10:23:32;101540.22;;;22.97;43.83
74659;BME280;63186;51.204;6.536;2023-05-13T10:25:58;101536.13;;;22.91;44.53
74659;BME280;63186;51.204;6.536;2023-05-13T10:28:24;101523.38;;;23.23;44.94
74659;BME280;63186;51.204;6.536;2023-05-13T10:30:50;101529.41;;;23.82;42.42
74659;BME280;63186;51.204;6.536;2023-05-13T10:33:16;101520.94;;;23.52;42.25
74659;BME280;63186;51.204;6.536;2023-05-13T10:35:49;101519.94;;;23.64;43.46
74659;BME280;63186;51.204;6.536;2023-05-13T10:41:29;101525.84;;;24.22;39.49
74659;BME280;63186;51.204;6.536;2023-05-13T10:43:59;101518.59;;;24.21;42.07
74659;BME280;63186;51.204;6.536;2023-05-13T10:46:24;101515.72;;;24.14;41.01
74659;BME280;63186;51.204;6.536;2023-05-13T10:48:55;101517.47;;;23.92;41.59
74659;BME280;63186;51.204;6.536;2023-05-13T10:51:22;101504.31;;;24.00;40.75
74659;BME280;63186;51.204;6.536;2023-05-13T10:53:53;101500.50;;;23.85;40.02
74659;BME280;63186;51.204;6.536;2023-05-13T10:56:20;101510.88;;;23.47;40.28
74659;BME280;63186;51.204;6.536;2023-05-13T10:59:04;101500.31;;;23.41;43.37
74659;BME280;63186;51.204;6.536;2023-05-13T11:01:37;101498.66;;;23.63;43.24
74659;BME280;63186;51.204;6.536;2023-05-13T11:04:11;101492.81;;;23.48;41.29
74659;BME280;63186;51.204;6.536;2023-05-13T11:06:39;101512.41;;;23.41;40.44
74659;BME280;63186;51.204;6.536;2023-05-13T11:09:14;101492.66;;;23.38;40.86
74659;BME280;63186;51.204;6.536;2023-05-13T11:11:40;101484.25;;;23.68;41.95
74659;BME280;63186;51.204;6.536;2023-05-13T11:14:08;101495.16;;;23.73;42.03
74659;BME280;63186;51.204;6.536;2023-05-13T11:16:38;101486.28;;;23.71;40.32
74659;BME280;63186;51.204;6.536;2023-05-13T11:19:06;101470.22;;;23.68;41.70
74659;BME280;63186;51.204;6.536;2023-05-13T11:21:36;101484.84;;;23.84;40.79
74659;BME280;63186;51.204;6.536;2023-05-13T11:24:06;101478.81;;;23.52;39.10
74659;BME280;63186;51.204;6.536;2023-05-13T11:26:57;101479.41;;;23.08;38.31
74659;BME280;63186;51.204;6.536;2023-05-13T11:29:30;101485.19;;;22.92;36.41
74659;BME280;63186;51.204;6.536;2023-05-13T11:31:56;101464.03;;;22.98;39.83
74659;BME280;63186;51.204;6.536;2023-05-13T11:34:23;101464.47;;;23.31;40.36
74659;BME280;63186;51.204;6.536;2023-05-13T11:36:57;101468.56;;;23.37;39.16
74659;BME280;63186;51.204;6.536;2023-05-13T11:39:30;101467.78;;;23.36;39.88
74659;BME280;63186;51.204;6.536;2023-05-13T11:41:56;101476.75;;;23.19;36.74
74659;BME280;63186;51.204;6.536;2023-05-13T11:44:23;101476.88;;;22.99;38.85
74659;BME280;63186;51.204;6.536;2023-05-13T11:46:59;101486.72;;;22.86;37.33
74659;BME280;63186;51.204;6.536;2023-05-13T11:49:32;101471.03;;;22.85;37.14
74659;BME280;63186;51.204;6.536;2023-05-13T11:52:12;101467.41;;;22.85;38.26
74659;BME280;63186;51.204;6.536;2023-05-13T11:57:30;101461.06;;;22.88;37.42
74659;BME280;63186;51.204;6.536;2023-05-13T12:00:05;101466.34;;;22.93;40.18
74659;BME280;63186;51.204;6.536;2023-05-13T12:02:36;101462.81;;;23.26;40.30
74659;BME280;63186;51.204;6.536;2023-05-13T12:05:06;101469.38;;;23.37;36.80
74659;BME280;63186;51.204;6.536;2023-05-13T12:07:33;101459.41;;;23.13;37.85
74659;BME280;63186;51.204;6.536;2023-05-13T12:10:00;101473.94;;;23.19;39.14
74659;BME280;63186;51.204;6.536;2023-05-13T12:12:27;101475.75;;;23.04;38.42
74659;BME280;63186;51.204;6.536;2023-05-13T12:14:54;101465.22;;;22.97;38.20
74659;BME280;63186;51.204;6.536;2023-05-13T12:17:20;101469.31;;;23.04;38.10
74659;BME280;63186;51.204;6.536;2023-05-13T12:22:56;101464.78;;;23.22;34.30
74659;BME280;63186;51.204;6.536;2023-05-13T12:28:15;101456.56;;;23.40;34.65
74659;BME280;63186;51.204;6.536;2023-05-13T12:30:48;101462.19;;;23.40;35.53
74659;BME280;63186;51.204;6.536;2023-05-13T12:33:16;101460.28;;;23.17;37.23
74659;BME280;63186;51.204;6.536;2023-05-13T12:35:43;101459.25;;;23.29;36.78
74659;BME280;63186;51.204;6.536;2023-05-13T12:38:13;101468.59;;;23.40;38.25
74659;BME280;63186;51.204;6.536;2023-05-13T12:40:40;101471.09;;;23.15;36.93
74659;BME280;63186;51.204;6.536;2023-05-13T12:43:07;101468.56;;;23.07;38.41
74659;BME280;63186;51.204;6.536;2023-05-13T12:45:32;101470.41;;;22.95;38.69
74659;BME280;63186;51.204;6.536;2023-05-13T12:47:59;101469.81;;;23.09;38.45
74659;BME280;63186;51.204;6.536;2023-05-13T12:50:25;101471.22;;;22.96;38.80
74659;BME280;63186;51.204;6.536;2023-05-13T12:52:51;101464.25;;;22.86;39.09
74659;BME280;63186;51.204;6.536;2023-05-13T12:55:17;101457.56;;;23.24;38.73
74659;BME280;63186;51.204;6.536;2023-05-13T12:57:42;101465.03;;;23.73;37.66
74659;BME280;63186;51.204;6.536;2023-05-13T13:00:09;101468.69;;;23.74;36.51
74659;BME280;63186;51.204;6.536;2023-05-13T13:02:35;101474.16;;;23.63;36.25